sensor_id;sensor_type;location;lat;lon;timestamp;pressure;altitude;pressure_sealevel;temperature
76476;BMP280;65308;50.078;14.854;2023-07-28T00:00:42;98322.38;;;18.83
76476;BMP280;65308;50.078;14.854;2023-07-28T00:03:08;98323.44;;;18.93
76476;BMP280;65308;50.078;14.854;2023-07-28T00:05:36;98314.28;;;18.96
76476;BMP280;65308;50.078;14.854;2023-07-28T00:08:02;98311.34;;;18.94
76476;BMP280;65308;50.078;14.854;2023-07-28T00:10:29;98316.75;;;18.94
76476;BMP280;65308;50.078;14.854;2023-07-28T00:12:56;98319.41;;;19.00
76476;BMP280;65308;50.078;14.854;2023-07-28T00:15:24;98316.38;;;19.03
76476;BMP280;65308;50.078;14.854;2023-07-28T00:17:51;98313.75;;;19.11
76476;BMP280;65308;50.078;14.854;2023-07-28T00:20:18;98307.72;;;19.05
76476;BMP280;65308;50.078;14.854;2023-07-28T00:22:44;98309.88;;;19.06
76476;BMP280;65308;50.078;14.854;2023-07-28T00:25:11;98313.53;;;19.09
76476;BMP280;65308;50.078;14.854;2023-07-28T00:27:37;98310.63;;;19.07
76476;BMP280;65308;50.078;14.854;2023-07-28T00:30:05;98305.59;;;19.11
76476;BMP280;65308;50.078;14.854;2023-07-28T00:32:33;98311.47;;;19.15
76476;BMP280;65308;50.078;14.854;2023-07-28T00:35:00;98318.44;;;19.10
76476;BMP280;65308;50.078;14.854;2023-07-28T00:37:26;98312.75;;;19.14
76476;BMP280;65308;50.078;14.854;2023-07-28T00:39:53;98308.56;;;19.13
76476;BMP280;65308;50.078;14.854;2023-07-28T00:42:19;98305.00;;;19.05
76476;BMP280;65308;50.078;14.854;2023-07-28T00:44:46;98310.72;;;19.15
76476;BMP280;65308;50.078;14.854;2023-07-28T00:47:13;98303.03;;;19.05
76476;BMP280;65308;50.078;14.854;2023-07-28T00:49:41;98294.38;;;19.07
76476;BMP280;65308;50.078;14.854;2023-07-28T00:52:08;98299.56;;;19.18
76476;BMP280;65308;50.078;14.854;2023-07-28T00:54:35;98291.63;;;19.20
76476;BMP280;65308;50.078;14.854;2023-07-28T00:57:02;98297.41;;;19.17
76476;BMP280;65308;50.078;14.854;2023-07-28T00:59:30;98287.38;;;19.25
76476;BMP280;65308;50.078;14.854;2023-07-28T01:01:57;98282.16;;;19.27
76476;BMP280;65308;50.078;14.854;2023-07-28T01:04:24;98277.47;;;19.27
76476;BMP280;65308;50.078;14.854;2023-07-28T01:06:57;98285.38;;;19.25
76476;BMP280;65308;50.078;14.854;2023-07-28T01:09:32;98289.44;;;19.32
76476;BMP280;65308;50.078;14.854;2023-07-28T01:12:07;98283.59;;;19.28
76476;BMP280;65308;50.078;14.854;2023-07-28T01:14:35;98293.13;;;19.21
76476;BMP280;65308;50.078;14.854;2023-07-28T01:17:02;98285.38;;;19.25
76476;BMP280;65308;50.078;14.854;2023-07-28T01:19:29;98285.59;;;19.27
76476;BMP280;65308;50.078;14.854;2023-07-28T01:22:12;98280.19;;;19.27
76476;BMP280;65308;50.078;14.854;2023-07-28T01:24:49;98274.75;;;19.27
76476;BMP280;65308;50.078;14.854;2023-07-28T01:27:18;98269.00;;;19.31
76476;BMP280;65308;50.078;14.854;2023-07-28T01:29:46;98274.84;;;19.35
76476;BMP280;65308;50.078;14.854;2023-07-28T01:32:12;98274.09;;;19.34
76476;BMP280;65308;50.078;14.854;2023-07-28T01:34:39;98269.53;;;19.29
76476;BMP280;65308;50.078;14.854;2023-07-28T01:37:06;98272.56;;;19.26
76476;BMP280;65308;50.078;14.854;2023-07-28T01:39:33;98278.00;;;19.26
76476;BMP280;65308;50.078;14.854;2023-07-28T01:42:00;98273.06;;;19.24
76476;BMP280;65308;50.078;14.854;2023-07-28T01:44:28;98275.44;;;19.28
76476;BMP280;65308;50.078;14.854;2023-07-28T01:46:56;98265.75;;;19.32
76476;BMP280;65308;50.078;14.854;2023-07-28T01:49:22;98272.53;;;19.39
76476;BMP280;65308;50.078;14.854;2023-07-28T01:51:49;98259.91;;;19.42
76476;BMP280;65308;50.078;14.854;2023-07-28T01:54:16;98260.13;;;19.44
76476;BMP280;65308;50.078;14.854;2023-07-28T01:56:43;98259.59;;;19.45
76476;BMP280;65308;50.078;14.854;2023-07-28T01:59:09;98252.16;;;19.46
76476;BMP280;65308;50.078;14.854;2023-07-28T02:01:38;98253.81;;;19.49
76476;BMP280;65308;50.078;14.854;2023-07-28T02:04:05;98257.59;;;19.46
76476;BMP280;65308;50.078;14.854;2023-07-28T02:06:31;98254.25;;;19.53
76476;BMP280;65308;50.078;14.854;2023-07-28T02:08:58;98254.69;;;19.57
76476;BMP280;65308;50.078;14.854;2023-07-28T02:11:25;98249.03;;;19.55
76476;BMP280;65308;50.078;14.854;2023-07-28T02:13:51;98249.81;;;19.63
76476;BMP280;65308;50.078;14.854;2023-07-28T02:16:18;98244.19;;;19.61
76476;BMP280;65308;50.078;14.854;2023-07-28T02:18:46;98244.41;;;19.63
76476;BMP280;65308;50.078;14.854;2023-07-28T02:21:13;98241.91;;;19.65
76476;BMP280;65308;50.078;14.854;2023-07-28T02:23:41;98238.97;;;19.63
76476;BMP280;65308;50.078;14.854;2023-07-28T02:26:07;98238.97;;;19.63
76476;BMP280;65308;50.078;14.854;2023-07-28T02:28:34;98240.03;;;19.60
76476;BMP280;65308;50.078;14.854;2023-07-28T02:31:00;98245.41;;;19.52
76476;BMP280;65308;50.078;14.854;2023-07-28T02:33:27;98243.84;;;19.44
76476;BMP280;65308;50.078;14.854;2023-07-28T02:35:56;98232.44;;;19.45
76476;BMP280;65308;50.078;14.854;2023-07-28T02:38:22;98235.69;;;19.44
76476;BMP280;65308;50.078;14.854;2023-07-28T02:40:49;98241.47;;;19.40
76476;BMP280;65308;50.078;14.854;2023-07-28T02:43:16;98242.69;;;19.39
76476;BMP280;65308;50.078;14.854;2023-07-28T02:45:42;98234.75;;;19.41
76476;BMP280;65308;50.078;14.854;2023-07-28T02:48:09;98245.47;;;19.47
76476;BMP280;65308;50.078;14.854;2023-07-28T02:50:36;98252.47;;;19.55
76476;BMP280;65308;50.078;14.854;2023-07-28T02:53:04;98252.97;;;19.54
76476;BMP280;65308;50.078;14.854;2023-07-28T02:55:31;98252.66;;;19.57
76476;BMP280;65308;50.078;14.854;2023-07-28T02:57:57;98253.59;;;19.60
76476;BMP280;65308;50.078;14.854;2023-07-28T03:00:24;98250.25;;;19.54
76476;BMP280;65308;50.078;14.854;2023-07-28T03:02:51;98251.22;;;19.56
76476;BMP280;65308;50.078;14.854;2023-07-28T03:05:17;98251.09;;;19.62
76476;BMP280;65308;50.078;14.854;2023-07-28T03:07:47;98251.00;;;19.54
76476;BMP280;65308;50.078;14.854;2023-07-28T03:10:15;98246.31;;;19.55
76476;BMP280;65308;50.078;14.854;2023-07-28T03:12:42;98243.91;;;19.51
76476;BMP280;65308;50.078;14.854;2023-07-28T03:15:09;98236.06;;;19.61
76476;BMP280;65308;50.078;14.854;2023-07-28T03:17:36;98244.88;;;19.41
76476;BMP280;65308;50.078;14.854;2023-07-28T03:20:03;98239.44;;;19.41
76476;BMP280;65308;50.078;14.854;2023-07-28T03:22:31;98238.19;;;19.42
76476;BMP280;65308;50.078;14.854;2023-07-28T03:24:58;98233.81;;;19.52
76476;BMP280;65308;50.078;14.854;2023-07-28T03:27:26;98242.38;;;19.43
76476;BMP280;65308;50.078;14.854;2023-07-28T03:29:52;98243.31;;;19.45
76476;BMP280;65308;50.078;14.854;2023-07-28T03:32:24;98245.69;;;19.49
76476;BMP280;65308;50.078;14.854;2023-07-28T03:34:51;98249.03;;;19.42
76476;BMP280;65308;50.078;14.854;2023-07-28T03:37:18;98250.09;;;19.39
76476;BMP280;65308;50.078;14.854;2023-07-28T03:39:44;98246.13;;;19.40
76476;BMP280;65308;50.078;14.854;2023-07-28T03:42:11;98248.00;;;19.45
76476;BMP280;65308;50.078;14.854;2023-07-28T03:44:39;98243.22;;;19.38
76476;BMP280;65308;50.078;14.854;2023-07-28T03:47:07;98256.19;;;19.31
76476;BMP280;65308;50.078;14.854;2023-07-28T03:49:33;98252.59;;;19.36
76476;BMP280;65308;50.078;14.854;2023-07-28T03:52:00;98251.78;;;19.28
76476;BMP280;65308;50.078;14.854;2023-07-28T03:54:27;98250.31;;;19.41
76476;BMP280;65308;50.078;14.854;2023-07-28T03:56:54;98246.66;;;19.38
76476;BMP280;65308;50.078;14.854;2023-07-28T03:59:21;98249.69;;;19.34
76476;BMP280;65308;50.078;14.854;2023-07-28T04:01:49;98247.63;;;19.27
76476;BMP280;65308;50.078;14.854;2023-07-28T04:04:17;98241.75;;;19.23
76476;BMP280;65308;50.078;14.854;2023-07-28T04:06:46;98248.75;;;19.32
76476;BMP280;65308;50.078;14.854;2023-07-28T04:09:13;98252.19;;;19.32
76476;BMP280;65308;50.078;14.854;2023-07-28T04:11:41;98243.84;;;19.44
76476;BMP280;65308;50.078;14.854;2023-07-28T04:14:07;98247.69;;;19.35
76476;BMP280;65308;50.078;14.854;2023-07-28T04:16:34;98249.03;;;19.42
76476;BMP280;65308;50.078;14.854;2023-07-28T04:19:02;98241.13;;;19.44
76476;BMP280;65308;50.078;14.854;2023-07-28T04:21:29;98243.63;;;19.42
76476;BMP280;65308;50.078;14.854;2023-07-28T04:23:56;98244.47;;;19.36
76476;BMP280;65308;50.078;14.854;2023-07-28T04:26:24;98242.69;;;19.39
76476;BMP280;65308;50.078;14.854;2023-07-28T04:28:51;98250.00;;;19.44
76476;BMP280;65308;50.078;14.854;2023-07-28T04:31:18;98247.59;;;19.41
76476;BMP280;65308;50.078;14.854;2023-07-28T04:33:44;98254.69;;;19.44
76476;BMP280;65308;50.078;14.854;2023-07-28T04:36:12;98254.28;;;19.40
76476;BMP280;65308;50.078;14.854;2023-07-28T04:38:39;98254.88;;;19.46
76476;BMP280;65308;50.078;14.854;2023-07-28T04:41:06;98259.59;;;19.45
76476;BMP280;65308;50.078;14.854;2023-07-28T04:43:32;98256.88;;;19.45
76476;BMP280;65308;50.078;14.854;2023-07-28T04:45:59;98266.16;;;19.50
76476;BMP280;65308;50.078;14.854;2023-07-28T04:48:26;98259.69;;;19.40
76476;BMP280;65308;50.078;14.854;2023-07-28T04:50:53;98257.09;;;19.34
76476;BMP280;65308;50.078;14.854;2023-07-28T04:53:21;98262.03;;;19.35
76476;BMP280;65308;50.078;14.854;2023-07-28T04:55:48;98263.78;;;19.33
76476;BMP280;65308;50.078;14.854;2023-07-28T04:58:15;98258.91;;;19.31
76476;BMP280;65308;50.078;14.854;2023-07-28T05:00:41;98259.31;;;19.35
76476;BMP280;65308;50.078;14.854;2023-07-28T05:03:08;98259.16;;;19.28
76476;BMP280;65308;50.078;14.854;2023-07-28T05:05:35;98257.41;;;19.30
76476;BMP280;65308;50.078;14.854;2023-07-28T05:08:02;98258.47;;;19.27
76476;BMP280;65308;50.078;14.854;2023-07-28T05:10:30;98258.47;;;19.27
76476;BMP280;65308;50.078;14.854;2023-07-28T05:12:57;98257.53;;;19.38
76476;BMP280;65308;50.078;14.854;2023-07-28T05:15:24;98267.84;;;19.40
76476;BMP280;65308;50.078;14.854;2023-07-28T05:17:50;98262.84;;;19.30
76476;BMP280;65308;50.078;14.854;2023-07-28T05:20:17;98264.09;;;19.29
76476;BMP280;65308;50.078;14.854;2023-07-28T05:22:43;98265.25;;;19.34
76476;BMP280;65308;50.078;14.854;2023-07-28T05:25:10;98284.00;;;19.32
76476;BMP280;65308;50.078;14.854;2023-07-28T05:27:38;98282.59;;;19.31
76476;BMP280;65308;50.078;14.854;2023-07-28T05:30:06;98287.13;;;19.36
76476;BMP280;65308;50.078;14.854;2023-07-28T05:32:33;98286.53;;;19.43
76476;BMP280;65308;50.078;14.854;2023-07-28T05:35:00;98293.09;;;19.48
76476;BMP280;65308;50.078;14.854;2023-07-28T05:37:27;98286.84;;;19.40
76476;BMP280;65308;50.078;14.854;2023-07-28T05:39:54;98283.38;;;19.52
76476;BMP280;65308;50.078;14.854;2023-07-28T05:42:20;98285.16;;;19.50
76476;BMP280;65308;50.078;14.854;2023-07-28T05:44:48;98300.41;;;19.53
76476;BMP280;65308;50.078;14.854;2023-07-28T05:47:17;98292.44;;;19.55
76476;BMP280;65308;50.078;14.854;2023-07-28T05:49:44;98289.56;;;19.40
76476;BMP280;65308;50.078;14.854;2023-07-28T05:52:10;98297.38;;;19.43
76476;BMP280;65308;50.078;14.854;2023-07-28T05:54:37;98298.31;;;19.46
76476;BMP280;65308;50.078;14.854;2023-07-28T05:57:05;98290.97;;;19.54
76476;BMP280;65308;50.078;14.854;2023-07-28T05:59:31;98301.41;;;19.63
76476;BMP280;65308;50.078;14.854;2023-07-28T06:02:00;98307.06;;;19.65
76476;BMP280;65308;50.078;14.854;2023-07-28T06:04:27;98313.16;;;19.79
76476;BMP280;65308;50.078;14.854;2023-07-28T06:06:54;98310.16;;;19.82
76476;BMP280;65308;50.078;14.854;2023-07-28T06:09:21;98316.91;;;19.89
76476;BMP280;65308;50.078;14.854;2023-07-28T06:11:48;98310.97;;;19.91
76476;BMP280;65308;50.078;14.854;2023-07-28T06:14:15;98309.63;;;20.05
76476;BMP280;65308;50.078;14.854;2023-07-28T06:16:41;98319.56;;;20.16
76476;BMP280;65308;50.078;14.854;2023-07-28T06:19:09;98316.34;;;20.25
76476;BMP280;65308;50.078;14.854;2023-07-28T06:21:36;98326.25;;;20.35
76476;BMP280;65308;50.078;14.854;2023-07-28T06:24:03;98321.66;;;20.30
76476;BMP280;65308;50.078;14.854;2023-07-28T06:26:31;98314.31;;;20.38
76476;BMP280;65308;50.078;14.854;2023-07-28T06:28:58;98311.72;;;20.33
76476;BMP280;65308;50.078;14.854;2023-07-28T06:31:24;98311.06;;;20.40
76476;BMP280;65308;50.078;14.854;2023-07-28T06:33:51;98310.53;;;20.41
76476;BMP280;65308;50.078;14.854;2023-07-28T06:36:19;98316.41;;;20.53
76476;BMP280;65308;50.078;14.854;2023-07-28T06:38:46;98316.47;;;20.61
76476;BMP280;65308;50.078;14.854;2023-07-28T06:41:14;98321.50;;;20.57
76476;BMP280;65308;50.078;14.854;2023-07-28T06:43:41;98314.09;;;20.57
76476;BMP280;65308;50.078;14.854;2023-07-28T06:46:07;98315.22;;;20.62
76476;BMP280;65308;50.078;14.854;2023-07-28T06:48:34;98324.09;;;20.62
76476;BMP280;65308;50.078;14.854;2023-07-28T06:51:01;98319.97;;;20.69
76476;BMP280;65308;50.078;14.854;2023-07-28T06:53:29;98324.66;;;20.89
76476;BMP280;65308;50.078;14.854;2023-07-28T06:55:55;98329.22;;;20.94
76476;BMP280;65308;50.078;14.854;2023-07-28T06:58:22;98325.34;;;21.11
76476;BMP280;65308;50.078;14.854;2023-07-28T07:00:49;98322.94;;;21.43
76476;BMP280;65308;50.078;14.854;2023-07-28T07:03:16;98331.06;;;21.87
76476;BMP280;65308;50.078;14.854;2023-07-28T07:05:45;98321.72;;;22.26
76476;BMP280;65308;50.078;14.854;2023-07-28T07:08:14;98325.84;;;22.66
76476;BMP280;65308;50.078;14.854;2023-07-28T07:10:48;98319.22;;;23.15
76476;BMP280;65308;50.078;14.854;2023-07-28T07:13:16;98325.13;;;23.36
76476;BMP280;65308;50.078;14.854;2023-07-28T07:15:43;98328.75;;;23.46
76476;BMP280;65308;50.078;14.854;2023-07-28T07:18:11;98329.00;;;23.65
76476;BMP280;65308;50.078;14.854;2023-07-28T07:20:43;98335.19;;;23.66
76476;BMP280;65308;50.078;14.854;2023-07-28T07:23:11;98345.56;;;23.67
76476;BMP280;65308;50.078;14.854;2023-07-28T07:25:38;98340.44;;;23.72
76476;BMP280;65308;50.078;14.854;2023-07-28T07:28:06;98337.91;;;23.66
76476;BMP280;65308;50.078;14.854;2023-07-28T07:30:33;98337.44;;;23.52
76476;BMP280;65308;50.078;14.854;2023-07-28T07:32:59;98341.09;;;23.47
76476;BMP280;65308;50.078;14.854;2023-07-28T07:35:26;98337.38;;;23.60
76476;BMP280;65308;50.078;14.854;2023-07-28T07:37:53;98347.91;;;23.71
76476;BMP280;65308;50.078;14.854;2023-07-28T07:40:20;98343.72;;;24.03
76476;BMP280;65308;50.078;14.854;2023-07-28T07:42:48;98347.47;;;24.32
76476;BMP280;65308;50.078;14.854;2023-07-28T07:45:18;98351.00;;;24.50
76476;BMP280;65308;50.078;14.854;2023-07-28T07:47:45;98363.38;;;24.68
76476;BMP280;65308;50.078;14.854;2023-07-28T07:50:12;98351.75;;;24.85
76476;BMP280;65308;50.078;14.854;2023-07-28T07:52:39;98356.72;;;24.96
76476;BMP280;65308;50.078;14.854;2023-07-28T07:55:06;98367.00;;;25.40
76476;BMP280;65308;50.078;14.854;2023-07-28T07:57:35;98363.53;;;25.67
76476;BMP280;65308;50.078;14.854;2023-07-28T08:00:02;98366.00;;;25.99
76476;BMP280;65308;50.078;14.854;2023-07-28T08:02:30;98372.41;;;25.84
76476;BMP280;65308;50.078;14.854;2023-07-28T08:05:01;98377.81;;;26.02
76476;BMP280;65308;50.078;14.854;2023-07-28T08:07:34;98374.66;;;26.05
76476;BMP280;65308;50.078;14.854;2023-07-28T08:10:02;98373.69;;;26.20
76476;BMP280;65308;50.078;14.854;2023-07-28T08:12:31;98374.00;;;26.24
76476;BMP280;65308;50.078;14.854;2023-07-28T08:14:59;98371.03;;;26.49
76476;BMP280;65308;50.078;14.854;2023-07-28T08:17:26;98384.78;;;27.17
76476;BMP280;65308;50.078;14.854;2023-07-28T08:19:54;98382.31;;;27.30
76476;BMP280;65308;50.078;14.854;2023-07-28T08:22:21;98381.66;;;27.51
76476;BMP280;65308;50.078;14.854;2023-07-28T08:24:48;98396.94;;;27.74
76476;BMP280;65308;50.078;14.854;2023-07-28T08:27:15;98388.25;;;28.08
76476;BMP280;65308;50.078;14.854;2023-07-28T08:29:49;98380.06;;;28.84
76476;BMP280;65308;50.078;14.854;2023-07-28T08:32:17;98380.94;;;28.98
76476;BMP280;65308;50.078;14.854;2023-07-28T08:34:49;98386.59;;;29.12
76476;BMP280;65308;50.078;14.854;2023-07-28T08:37:18;98387.91;;;29.11
76476;BMP280;65308;50.078;14.854;2023-07-28T08:39:44;98388.16;;;29.15
76476;BMP280;65308;50.078;14.854;2023-07-28T08:42:11;98383.28;;;29.49
76476;BMP280;65308;50.078;14.854;2023-07-28T08:44:38;98373.72;;;30.45
76476;BMP280;65308;50.078;14.854;2023-07-28T08:47:05;98378.00;;;30.74
76476;BMP280;65308;50.078;14.854;2023-07-28T08:49:32;98388.34;;;31.24
76476;BMP280;65308;50.078;14.854;2023-07-28T08:52:02;98398.47;;;32.74
76476;BMP280;65308;50.078;14.854;2023-07-28T08:54:30;98389.13;;;34.67
76476;BMP280;65308;50.078;14.854;2023-07-28T08:56:57;98389.09;;;35.22
76476;BMP280;65308;50.078;14.854;2023-07-28T08:59:25;98395.00;;;36.89
76476;BMP280;65308;50.078;14.854;2023-07-28T09:01:53;98400.75;;;37.77
76476;BMP280;65308;50.078;14.854;2023-07-28T09:04:20;98384.31;;;38.91
76476;BMP280;65308;50.078;14.854;2023-07-28T09:06:47;98393.94;;;39.20
76476;BMP280;65308;50.078;14.854;2023-07-28T09:09:15;98379.84;;;38.78
76476;BMP280;65308;50.078;14.854;2023-07-28T09:11:47;98381.38;;;37.55
76476;BMP280;65308;50.078;14.854;2023-07-28T09:14:16;98382.09;;;36.29
76476;BMP280;65308;50.078;14.854;2023-07-28T09:16:44;98380.09;;;35.66
76476;BMP280;65308;50.078;14.854;2023-07-28T09:19:11;98389.13;;;35.05
76476;BMP280;65308;50.078;14.854;2023-07-28T09:21:39;98382.16;;;35.43
76476;BMP280;65308;50.078;14.854;2023-07-28T09:24:07;98387.28;;;34.91
76476;BMP280;65308;50.078;14.854;2023-07-28T09:26:38;98392.03;;;34.69
76476;BMP280;65308;50.078;14.854;2023-07-28T09:29:14;98394.59;;;34.27
76476;BMP280;65308;50.078;14.854;2023-07-28T09:31:41;98392.50;;;33.92
76476;BMP280;65308;50.078;14.854;2023-07-28T09:34:08;98386.75;;;33.71
76476;BMP280;65308;50.078;14.854;2023-07-28T09:36:35;98394.66;;;33.45
76476;BMP280;65308;50.078;14.854;2023-07-28T09:39:04;98390.38;;;32.94
76476;BMP280;65308;50.078;14.854;2023-07-28T09:41:34;98396.78;;;32.38
76476;BMP280;65308;50.078;14.854;2023-07-28T09:44:01;98384.88;;;31.92
76476;BMP280;65308;50.078;14.854;2023-07-28T09:46:29;98395.00;;;30.94
76476;BMP280;65308;50.078;14.854;2023-07-28T09:48:59;98390.75;;;29.93
76476;BMP280;65308;50.078;14.854;2023-07-28T09:51:30;98385.97;;;29.70
76476;BMP280;65308;50.078;14.854;2023-07-28T09:54:03;98390.03;;;29.57
76476;BMP280;65308;50.078;14.854;2023-07-28T09:56:31;98383.06;;;29.80
76476;BMP280;65308;50.078;14.854;2023-07-28T09:58:58;98379.00;;;29.92
76476;BMP280;65308;50.078;14.854;2023-07-28T10:01:26;98378.84;;;30.02
76476;BMP280;65308;50.078;14.854;2023-07-28T10:03:54;98381.38;;;29.86
76476;BMP280;65308;50.078;14.854;2023-07-28T10:06:22;98387.00;;;29.42
76476;BMP280;65308;50.078;14.854;2023-07-28T10:08:49;98383.19;;;29.02
76476;BMP280;65308;50.078;14.854;2023-07-28T10:11:17;98377.25;;;28.72
76476;BMP280;65308;50.078;14.854;2023-07-28T10:13:45;98391.66;;;28.61
76476;BMP280;65308;50.078;14.854;2023-07-28T10:16:12;98390.47;;;28.64
76476;BMP280;65308;50.078;14.854;2023-07-28T10:18:40;98385.63;;;28.74
76476;BMP280;65308;50.078;14.854;2023-07-28T10:21:09;98376.31;;;28.79
76476;BMP280;65308;50.078;14.854;2023-07-28T10:23:39;98382.25;;;29.09
76476;BMP280;65308;50.078;14.854;2023-07-28T10:26:05;98372.25;;;29.37
76476;BMP280;65308;50.078;14.854;2023-07-28T10:28:35;98381.25;;;29.49
76476;BMP280;65308;50.078;14.854;2023-07-28T10:31:05;98367.47;;;29.61
76476;BMP280;65308;50.078;14.854;2023-07-28T10:33:33;98376.84;;;29.67
76476;BMP280;65308;50.078;14.854;2023-07-28T10:36:12;98389.31;;;29.57
76476;BMP280;65308;50.078;14.854;2023-07-28T10:38:39;98374.69;;;29.54
76476;BMP280;65308;50.078;14.854;2023-07-28T10:41:11;98383.28;;;29.49
76476;BMP280;65308;50.078;14.854;2023-07-28T10:43:39;98387.13;;;29.32
76476;BMP280;65308;50.078;14.854;2023-07-28T10:46:08;98388.34;;;29.40
76476;BMP280;65308;50.078;14.854;2023-07-28T10:48:36;98385.69;;;29.43
76476;BMP280;65308;50.078;14.854;2023-07-28T10:51:04;98385.91;;;29.35
76476;BMP280;65308;50.078;14.854;2023-07-28T10:53:33;98394.78;;;29.22
76476;BMP280;65308;50.078;14.854;2023-07-28T10:56:02;98388.56;;;29.33
76476;BMP280;65308;50.078;14.854;2023-07-28T10:58:31;98393.22;;;29.30
76476;BMP280;65308;50.078;14.854;2023-07-28T11:00:57;98392.06;;;29.57
76476;BMP280;65308;50.078;14.854;2023-07-28T11:03:24;98385.25;;;29.81
76476;BMP280;65308;50.078;14.854;2023-07-28T11:05:51;98389.78;;;29.88
76476;BMP280;65308;50.078;14.854;2023-07-28T11:08:20;98386.75;;;30.08
76476;BMP280;65308;50.078;14.854;2023-07-28T11:10:48;98386.25;;;30.23
76476;BMP280;65308;50.078;14.854;2023-07-28T11:13:15;98383.44;;;30.46
76476;BMP280;65308;50.078;14.854;2023-07-28T11:15:43;98371.13;;;30.61
76476;BMP280;65308;50.078;14.854;2023-07-28T11:18:10;98387.38;;;30.43
76476;BMP280;65308;50.078;14.854;2023-07-28T11:20:37;98381.94;;;30.20
76476;BMP280;65308;50.078;14.854;2023-07-28T11:23:04;98380.38;;;30.17
76476;BMP280;65308;50.078;14.854;2023-07-28T11:25:33;98379.41;;;30.24
76476;BMP280;65308;50.078;14.854;2023-07-28T11:28:02;98378.81;;;30.25
76476;BMP280;65308;50.078;14.854;2023-07-28T11:30:31;98385.38;;;30.32
76476;BMP280;65308;50.078;14.854;2023-07-28T11:32:59;98376.44;;;30.08
76476;BMP280;65308;50.078;14.854;2023-07-28T11:35:29;98382.94;;;29.89
76476;BMP280;65308;50.078;14.854;2023-07-28T11:37:57;98379.94;;;29.74
76476;BMP280;65308;50.078;14.854;2023-07-28T11:40:27;98383.53;;;29.76
76476;BMP280;65308;50.078;14.854;2023-07-28T11:42:55;98378.03;;;29.88
76476;BMP280;65308;50.078;14.854;2023-07-28T11:45:23;98384.25;;;29.77
76476;BMP280;65308;50.078;14.854;2023-07-28T11:47:58;98379.94;;;29.85
76476;BMP280;65308;50.078;14.854;2023-07-28T11:50:38;98378.47;;;29.96
76476;BMP280;65308;50.078;14.854;2023-07-28T11:53:11;98383.28;;;30.07
76476;BMP280;65308;50.078;14.854;2023-07-28T11:55:49;98379.44;;;30.12
76476;BMP280;65308;50.078;14.854;2023-07-28T11:58:30;98376.41;;;30.20
76476;BMP280;65308;50.078;14.854;2023-07-28T12:00:58;98372.84;;;30.06
76476;BMP280;65308;50.078;14.854;2023-07-28T12:03:29;98368.41;;;30.00
76476;BMP280;65308;50.078;14.854;2023-07-28T12:09:07;98378.25;;;30.04
76476;BMP280;65308;50.078;14.854;2023-07-28T12:11:37;98374.91;;;29.93
76476;BMP280;65308;50.078;14.854;2023-07-28T12:14:12;98380.19;;;29.89
76476;BMP280;65308;50.078;14.854;2023-07-28T12:16:41;98370.59;;;29.90
76476;BMP280;65308;50.078;14.854;2023-07-28T12:19:13;98367.59;;;29.75
76476;BMP280;65308;50.078;14.854;2023-07-28T12:21:40;98373.69;;;29.85
76476;BMP280;65308;50.078;14.854;2023-07-28T12:24:07;98372.03;;;29.91
76476;BMP280;65308;50.078;14.854;2023-07-28T12:26:37;98374.66;;;29.89
76476;BMP280;65308;50.078;14.854;2023-07-28T12:29:03;98377.53;;;29.91
76476;BMP280;65308;50.078;14.854;2023-07-28T12:31:31;98380.91;;;30.02
76476;BMP280;65308;50.078;14.854;2023-07-28T12:34:00;98383.75;;;30.04
76476;BMP280;65308;50.078;14.854;2023-07-28T12:36:27;98383.25;;;30.19
76476;BMP280;65308;50.078;14.854;2023-07-28T12:38:54;98374.47;;;30.34
76476;BMP280;65308;50.078;14.854;2023-07-28T12:41:21;98373.63;;;30.32
76476;BMP280;65308;50.078;14.854;2023-07-28T12:43:47;98372.16;;;30.42
76476;BMP280;65308;50.078;14.854;2023-07-28T12:46:14;98373.88;;;30.24
76476;BMP280;65308;50.078;14.854;2023-07-28T12:48:41;98388.22;;;30.09
76476;BMP280;65308;50.078;14.854;2023-07-28T12:51:09;98378.63;;;29.86
76476;BMP280;65308;50.078;14.854;2023-07-28T12:53:36;98374.91;;;29.93
76476;BMP280;65308;50.078;14.854;2023-07-28T12:56:03;98383.44;;;29.86
76476;BMP280;65308;50.078;14.854;2023-07-28T12:58:31;98387.63;;;29.75
76476;BMP280;65308;50.078;14.854;2023-07-28T13:00:59;98389.53;;;29.84
76476;BMP280;65308;50.078;14.854;2023-07-28T13:03:27;98380.94;;;29.90
76476;BMP280;65308;50.078;14.854;2023-07-28T13:05:54;98382.72;;;29.97
76476;BMP280;65308;50.078;14.854;2023-07-28T13:08:22;98371.28;;;30.03
76476;BMP280;65308;50.078;14.854;2023-07-28T13:10:48;98382.81;;;29.87
76476;BMP280;65308;50.078;14.854;2023-07-28T13:13:15;98384.50;;;29.92
76476;BMP280;65308;50.078;14.854;2023-07-28T13:15:42;98384.25;;;30.12
76476;BMP280;65308;50.078;14.854;2023-07-28T13:18:08;98377.38;;;30.13
76476;BMP280;65308;50.078;14.854;2023-07-28T13:20:35;98372.59;;;30.25
76476;BMP280;65308;50.078;14.854;2023-07-28T13:23:02;98382.63;;;30.32
76476;BMP280;65308;50.078;14.854;2023-07-28T13:25:30;98386.78;;;30.45
76476;BMP280;65308;50.078;14.854;2023-07-28T13:27:56;98373.34;;;30.51
76476;BMP280;65308;50.078;14.854;2023-07-28T13:30:23;98392.06;;;30.41
76476;BMP280;65308;50.078;14.854;2023-07-28T13:32:50;98381.50;;;30.49
76476;BMP280;65308;50.078;14.854;2023-07-28T13:35:16;98383.22;;;30.42
76476;BMP280;65308;50.078;14.854;2023-07-28T13:37:43;98397.00;;;30.42
76476;BMP280;65308;50.078;14.854;2023-07-28T13:40:10;98399.75;;;30.54
76476;BMP280;65308;50.078;14.854;2023-07-28T13:42:38;98393.38;;;30.51
76476;BMP280;65308;50.078;14.854;2023-07-28T13:45:05;98388.09;;;30.44
76476;BMP280;65308;50.078;14.854;2023-07-28T13:47:32;98389.03;;;30.23
76476;BMP280;65308;50.078;14.854;2023-07-28T13:49:59;98383.69;;;30.27
76476;BMP280;65308;50.078;14.854;2023-07-28T13:52:26;98392.34;;;30.33
76476;BMP280;65308;50.078;14.854;2023-07-28T13:54:53;98392.53;;;30.12
76476;BMP280;65308;50.078;14.854;2023-07-28T13:57:19;98382.19;;;30.12
76476;BMP280;65308;50.078;14.854;2023-07-28T13:59:47;98380.66;;;29.97
76476;BMP280;65308;50.078;14.854;2023-07-28T14:02:14;98392.41;;;29.86